Stations météo

réclame
Mon MeteoGroup
Mt. St.Vincent, France (7382): Température de l'air & dewpoint: 16.07.2018 08:00:00 - 22.07.2018 08:00:00 (CEST)Mt. St.Vincent, France (7382): Vitesse du vent & gusts: 16.07.2018 08:00:00 - 22.07.2018 08:00:00 (CEST)Mt. St.Vincent, France (7382): Direction du vent: 16.07.2018 08:00:00 - 22.07.2018 08:00:00 (CEST)Mt. St.Vincent, France (7382): Ensoleillement: 16.07.2018 08:00:00 - 22.07.2018 08:00:00 (CEST)Mt. St.Vincent, France (7382): Quantités de précipitations: 16.07.2018 08:00:00 - 22.07.2018 08:00:00 (CEST)
Date & Time tt [°C] td [°C] ff [km/h] ff [knt] fx [km/h] fx [knt] dd sd [min] rr [mm]
22.07.2018 08:00:00 17,9 11,0 5 3 16 9 N 36 -
22.07.2018 07:00:00 16,4 11,1 5 3 21 11 NNW 0 0,0
22.07.2018 06:00:00 17,1 11,1 8 4 18 10 N 0 0,0
22.07.2018 05:00:00 16,9 11,6 8 4 15 8 N 0 0,0
22.07.2018 04:00:00 16,3 11,4 8 4 13 7 WNW 0 0,0
22.07.2018 03:00:00 16,4 11,3 5 3 13 7 WNW 0 0,0
22.07.2018 02:00:00 15,9 11,5 4 2 15 8 NNW 0 -
22.07.2018 01:00:00 16,6 12,1 9 5 18 10 WNW 0 0,0
22.07.2018 00:00:00 16,4 12,7 13 7 22 12 WNW 0 0,0
21.07.2018 23:00:00 16,9 13,2 13 7 22 12 W 0 0,0
21.07.2018 22:00:00 17,8 12,5 11 6 22 12 W 0 0,0
21.07.2018 21:00:00 18,7 11,3 16 9 26 14 WNW 24 0,0
21.07.2018 20:00:00 21,7 10,8 13 7 29 16 WNW 42 -
21.07.2018 19:00:00 23,2 10,9 13 7 31 17 WNW 36 0,0
21.07.2018 18:00:00 21,6 10,7 13 7 29 16 WNW 12 0,0
21.07.2018 17:00:00 23,4 10,1 15 8 31 17 WNW 36 0,0
21.07.2018 16:00:00 24,0 12,3 16 9 29 16 W 36 0,0
21.07.2018 15:00:00 21,5 12,3 9 5 24 13 WSW 6 0,0
21.07.2018 14:00:00 19,6 12,6 8 4 26 14 WNW 12 -
21.07.2018 13:00:00 21,4 13,3 15 8 26 14 W 12 0,0
21.07.2018 12:00:00 20,8 13,2 5 3 22 12 WNW 36 0,0
21.07.2018 11:00:00 19,8 13,0 8 4 24 13 WNW 60 0,0
21.07.2018 10:00:00 17,6 14,7 15 8 28 15 WNW 54 0,0
21.07.2018 09:00:00 16,3 15,2 13 7 22 12 W 30 0,0
21.07.2018 08:00:00 15,0 14,5 11 6 22 12 W 12 -
21.07.2018 07:00:00 14,6 14,3 13 7 22 12 W 0 0,0
21.07.2018 06:00:00 14,8 14,5 8 4 15 8 W 0 0,0
21.07.2018 05:00:00 15,3 15,0 8 4 18 10 W 0 0,0
21.07.2018 04:00:00 15,8 15,5 13 7 21 11 W 0 0,0
21.07.2018 03:00:00 16,1 15,6 13 7 26 14 W 0 0,0
21.07.2018 02:00:00 16,4 15,6 15 8 39 21 W 0 -
21.07.2018 01:00:00 17,1 16,5 21 11 37 20 W 0 0,0
21.07.2018 00:00:00 17,2 16,7 29 16 42 23 WSW 0 0,0
20.07.2018 23:00:00 18,2 16,5 18 10 29 16 W 0 0,0
20.07.2018 22:00:00 18,5 16,3 22 12 37 20 W 0 0,2
20.07.2018 21:00:00 19,6 16,8 24 13 37 20 W 0 0,0
20.07.2018 20:00:00 21,1 16,1 13 7 18 10 W 24 -
20.07.2018 19:00:00 23,1 16,6 11 6 18 10 W 30 0,0
20.07.2018 18:00:00 20,5 15,7 9 5 15 8 WSW 0 0,2
20.07.2018 17:00:00 19,1 14,8 5 3 21 11 W 0 0,4
20.07.2018 16:00:00 20,3 15,3 13 7 29 16 WNW 0 0,2
20.07.2018 15:00:00 23,9 14,9 13 7 26 14 W 0 0,0
20.07.2018 14:00:00 25,3 14,7 15 8 26 14 W 60 -
20.07.2018 13:00:00 25,4 13,3 9 5 26 14 W 54 0,0
20.07.2018 12:00:00 24,3 13,8 13 7 22 12 W 48 0,0
20.07.2018 11:00:00 23,3 12,3 4 2 18 10 WSW 60 0,0
20.07.2018 10:00:00 20,6 13,1 8 4 24 13 N 30 0,0
20.07.2018 09:00:00 17,9 12,3 9 5 26 14 NNE 0 0,0
20.07.2018 08:00:00 16,1 14,1 18 10 59 32 WNW 42 -
20.07.2018 07:00:00 14,9 12,8 34 18 61 33 W 24 0,0
20.07.2018 06:00:00 15,8 13,3 16 9 35 19 WSW 0 0,0
20.07.2018 05:00:00 17,9 12,8 8 4 18 10 WSW 0 0,0
20.07.2018 04:00:00 21,1 10,6 13 7 22 12 ENE 0 0,0
20.07.2018 03:00:00 21,7 10,5 16 9 26 14 ENE 0 0,0
20.07.2018 02:00:00 22,6 11,3 15 8 24 13 ENE 0 -
20.07.2018 01:00:00 23,0 12,3 8 4 16 9 N 0 0,0
20.07.2018 00:00:00 24,0 11,7 4 2 9 5 N 0 0,0
19.07.2018 23:00:00 23,8 11,8 4 2 11 6 NE 0 0,0
19.07.2018 22:00:00 24,4 11,4 8 4 13 7 NE 0 0,0
19.07.2018 21:00:00 25,0 12,2 5 3 11 6 NE 24 0,0
19.07.2018 20:00:00 25,3 11,8 5 3 11 6 NNE 0 -
19.07.2018 19:00:00 27,4 12,2 5 3 16 9 WNW 48 0,0
19.07.2018 18:00:00 28,5 11,1 5 3 15 8 NW 36 0,0
19.07.2018 17:00:00 27,1 10,7 4 2 18 10 N 12 0,0
19.07.2018 16:00:00 28,9 9,6 5 3 28 15 W 36 0,0
19.07.2018 15:00:00 28,1 11,2 8 4 24 13 W 48 0,0
19.07.2018 14:00:00 28,0 11,9 8 4 21 11 NE 60 -
19.07.2018 13:00:00 26,4 12,8 8 4 18 10 WNW 60 0,0
19.07.2018 12:00:00 25,0 12,9 8 4 24 13 W 60 0,0
19.07.2018 11:00:00 23,6 12,9 9 5 22 12 WNW 60 0,0
19.07.2018 10:00:00 22,2 12,4 4 2 15 8 NW 60 0,0
19.07.2018 09:00:00 20,4 11,6 4 2 13 7 N 60 0,0
19.07.2018 08:00:00 19,1 10,6 4 2 16 9 N 60 -
19.07.2018 07:00:00 17,4 11,0 4 2 15 8 NW 24 0,0
19.07.2018 06:00:00 17,9 10,8 8 4 22 12 N 0 0,0
19.07.2018 05:00:00 18,2 10,6 9 5 22 12 N 0 0,0
19.07.2018 04:00:00 19,1 10,6 9 5 28 15 N 0 0,0
19.07.2018 03:00:00 19,6 10,3 11 6 24 13 N 0 0,0
19.07.2018 02:00:00 19,7 10,4 9 5 26 14 N 0 -
19.07.2018 01:00:00 19,4 10,7 8 4 16 9 WNW 0 0,0
19.07.2018 00:00:00 20,7 10,5 13 7 18 10 W 0 0,0
18.07.2018 23:00:00 21,6 10,4 8 4 16 9 WNW 0 0,0
18.07.2018 22:00:00 21,9 10,1 11 6 16 9 W 0 0,0
18.07.2018 21:00:00 23,8 10,5 9 5 18 10 WNW 42 0,0
18.07.2018 20:00:00 26,6 9,0 5 3 18 10 WNW 60 -
18.07.2018 19:00:00 27,6 9,4 4 2 18 10 NW 60 0,0
18.07.2018 18:00:00 27,2 8,1 11 6 24 13 WSW 60 0,0
18.07.2018 17:00:00 27,5 8,4 9 5 26 14 WNW 60 0,0
18.07.2018 16:00:00 27,3 8,2 11 6 24 13 W 60 0,0
18.07.2018 15:00:00 26,8 8,7 4 2 21 11 NNE 60 0,0
18.07.2018 14:00:00 25,5 9,7 11 6 24 13 W 60 -
18.07.2018 13:00:00 24,9 11,5 5 3 22 12 NW 60 0,0
18.07.2018 12:00:00 23,4 10,1 4 2 22 12 NW 60 0,0
18.07.2018 11:00:00 22,1 10,3 8 4 16 9 WNW 60 0,0
18.07.2018 10:00:00 20,8 12,2 4 2 18 10 NNW 60 0,0
18.07.2018 09:00:00 18,9 11,7 5 3 18 10 NNW 60 0,0
18.07.2018 08:00:00 18,5 11,1 4 2 16 9 NNW 60 -
18.07.2018 07:00:00 17,1 10,0 5 3 13 7 NW 30 0,0
18.07.2018 06:00:00 16,2 9,6 8 4 11 6 WNW 0 0,0
18.07.2018 05:00:00 16,1 9,5 8 4 11 6 WNW 0 0,0
18.07.2018 04:00:00 16,5 9,9 9 5 13 7 W 0 0,0
18.07.2018 03:00:00 17,1 9,8 9 5 16 9 WNW 0 0,0
18.07.2018 02:00:00 16,9 9,8 5 3 15 8 WNW 0 -
18.07.2018 01:00:00 17,4 9,6 4 2 15 8 NNW 0 0,0
18.07.2018 00:00:00 17,6 10,2 4 2 21 11 NNW 0 0,0
17.07.2018 23:00:00 18,1 11,2 4 2 22 12 NNW 0 0,0
17.07.2018 22:00:00 19,2 11,7 5 3 28 15 NW 0 0,0
17.07.2018 21:00:00 21,4 11,1 13 7 29 16 WNW 42 0,0
17.07.2018 20:00:00 23,9 11,6 11 6 35 19 WNW 54 -
17.07.2018 19:00:00 24,6 10,8 22 12 39 21 WNW 42 0,0
17.07.2018 18:00:00 23,2 11,6 18 10 39 21 WNW 48 0,0
17.07.2018 17:00:00 24,8 12,4 18 10 41 22 WNW 60 0,0
17.07.2018 16:00:00 24,2 13,1 24 13 44 24 WNW 48 0,0
17.07.2018 15:00:00 24,3 14,1 26 14 48 26 W 60 0,0
17.07.2018 14:00:00 23,2 14,2 28 15 52 28 W 60 -
17.07.2018 13:00:00 22,0 14,6 26 14 48 26 W 60 0,0
17.07.2018 12:00:00 20,4 14,3 29 16 54 29 W 36 0,0
17.07.2018 11:00:00 19,1 14,8 34 18 48 26 W 60 0,0
17.07.2018 10:00:00 17,1 14,7 31 17 54 29 W 48 0,0
17.07.2018 09:00:00 16,2 14,4 31 17 48 26 W 60 0,0
17.07.2018 08:00:00 15,3 13,8 31 17 46 25 W 60 -
17.07.2018 07:00:00 14,5 13,5 28 15 44 24 W 6 0,0
17.07.2018 06:00:00 14,5 13,7 26 14 41 22 W 0 0,2
17.07.2018 05:00:00 15,1 14,6 28 15 41 22 W 0 0,0
17.07.2018 04:00:00 15,6 15,1 28 15 44 24 W 0 0,0
17.07.2018 03:00:00 15,9 14,9 26 14 39 21 W 0 0,0
17.07.2018 02:00:00 16,1 14,5 28 15 39 21 W 0 -
17.07.2018 01:00:00 16,6 14,2 26 14 39 21 W 0 0,0
17.07.2018 00:00:00 16,9 13,6 24 13 34 18 W 0 0,0
16.07.2018 23:00:00 17,9 13,6 22 12 39 21 W 0 0,0
16.07.2018 22:00:00 18,8 14,1 22 12 31 17 WSW 6 0,0
16.07.2018 21:00:00 20,5 13,9 4 2 41 22 N 42 0,0
16.07.2018 20:00:00 19,9 14,7 28 15 48 26 W 6 -
16.07.2018 19:00:00 24,1 13,0 18 10 42 23 WNW 30 0,0
16.07.2018 18:00:00 27,6 11,6 16 9 29 16 W 42 0,0
16.07.2018 17:00:00 27,2 10,0 5 3 16 9 WNW 36 0,0
16.07.2018 16:00:00 25,1 10,9 8 4 29 16 NNE 36 0,0
16.07.2018 15:00:00 26,5 8,9 9 5 29 16 NE 54 0,0
16.07.2018 14:00:00 26,2 11,1 9 5 24 13 NE 60 -
16.07.2018 13:00:00 25,5 11,6 9 5 26 14 NE 60 0,0
16.07.2018 12:00:00 23,8 13,3 11 6 24 13 NE 60 0,0
16.07.2018 11:00:00 22,4 12,9 11 6 22 12 ENE 60 0,0
16.07.2018 10:00:00 20,7 11,9 15 8 22 12 ENE 60 0,0
16.07.2018 09:00:00 19,4 11,7 9 5 15 8 ENE 60 0,0
16.07.2018 08:00:00 17,4 11,7 8 4 13 7 ENE 60 -

tt = Température de l'air
td = dewpoint
ff = Vitesse du vent
fx = gusts
dd = Direction du vent
sd = Ensoleillement
rr = Quantités de précipitations

stations d'obs. à proximité